Time;durP1;ratioP1;P1;durP2;ratioP2;P2;SDS_P1;SDS_P2;PMS_P1;PMS_P2;Temp;Humidity;BMP_temperature;BMP_pressure;BME280_temperature;BME280_humidity;BME280_pressure;Samples;Min_cycle;Max_cycle;Signal;HPM_P1;HPM_P2
2022/01/11 00:00:44;;;;;;;97.93;31.03;;;-0.40;99.90;;;;;;5046351;28;20471;-36
2022/01/11 00:03:09;;;;;;;127.87;31.13;;;-0.40;99.90;;;;;;5063640;28;20059;-37
2022/01/11 00:08:15;;;;;;;89.00;33.10;;;-0.40;99.90;;;;;;5048133;28;20044;-36
2022/01/11 00:10:50;;;;;;;94.97;31.47;;;-0.50;99.90;;;;;;5064791;28;20054;-36
2022/01/11 00:13:17;;;;;;;98.60;32.90;;;-0.40;99.90;;;;;;5063630;28;20068;-36
2022/01/11 00:15:44;;;;;;;112.33;32.67;;;-0.50;99.90;;;;;;5064327;28;20115;-37
2022/01/11 00:18:10;;;;;;;89.23;29.97;;;-0.50;99.90;;;;;;5047792;28;20044;-36
2022/01/11 00:20:38;;;;;;;81.07;29.97;;;-0.50;99.90;;;;;;5063065;28;20094;-36
2022/01/11 00:25:32;;;;;;;68.53;30.20;;;-0.50;99.90;;;;;;5064253;28;20056;-37
2022/01/11 00:27:58;;;;;;;70.90;31.17;;;-0.60;99.90;;;;;;5046140;28;20768;-36
2022/01/11 00:30:30;;;;;;;50.87;26.93;;;-0.60;99.90;;;;;;5066290;28;20489;-36
2022/01/11 00:32:59;;;;;;;60.23;27.70;;;-0.60;99.90;;;;;;5063642;28;20039;-36
2022/01/11 00:35:28;;;;;;;87.63;27.73;;;-0.60;99.90;;;;;;5067808;28;20032;-37
2022/01/11 00:37:55;;;;;;;65.27;27.60;;;-0.60;99.90;;;;;;5052040;28;20379;-35
2022/01/11 00:40:21;;;;;;;72.83;28.60;;;-0.60;99.90;;;;;;5066545;28;20397;-37
2022/01/11 00:42:47;;;;;;;45.50;27.10;;;-0.60;99.90;;;;;;5066799;28;20496;-36
2022/01/11 00:45:13;;;;;;;44.20;26.53;;;-0.70;99.90;;;;;;5037069;28;20044;-36
2022/01/11 00:47:39;;;;;;;49.20;27.47;;;-0.60;99.90;;;;;;5051119;28;20136;-37
2022/01/11 00:50:07;;;;;;;44.97;25.20;;;-0.70;99.90;;;;;;5050059;28;20071;-36
2022/01/11 00:52:33;;;;;;;43.77;27.60;;;-0.70;99.90;;;;;;5066671;28;20048;-36
2022/01/11 00:54:59;;;;;;;42.63;25.53;;;-0.70;99.90;;;;;;5065789;28;20052;-36
2022/01/11 00:57:25;;;;;;;42.97;27.57;;;-0.70;99.90;;;;;;5051416;28;20044;-36
2022/01/11 00:59:51;;;;;;;38.90;26.40;;;-0.70;99.90;;;;;;5067827;28;20463;-36
2022/01/11 01:02:17;;;;;;;37.70;25.23;;;-0.70;99.90;;;;;;5066719;28;20523;-37
2022/01/11 01:04:42;;;;;;;41.60;27.07;;;-0.80;99.90;;;;;;5067703;28;20037;-36
2022/01/11 01:07:08;;;;;;;40.77;26.07;;;-0.80;99.90;;;;;;5050993;28;20483;-36
2022/01/11 01:09:48;;;;;;;39.60;26.90;;;-0.80;99.90;;;;;;5067405;28;20137;-36
2022/01/11 01:12:14;;;;;;;40.27;25.73;;;-0.80;99.90;;;;;;5048224;28;20053;-36
2022/01/11 01:14:39;;;;;;;44.77;26.57;;;-0.80;99.90;;;;;;5049250;28;20052;-37
2022/01/11 01:17:05;;;;;;;42.13;25.53;;;-0.80;99.90;;;;;;5051090;28;20051;-36
2022/01/11 01:19:31;;;;;;;41.93;25.37;;;-0.50;99.90;;;;;;5067252;28;20044;-37
2022/01/11 01:21:57;;;;;;;40.43;26.43;;;-0.80;99.90;;;;;;5048695;28;20051;-36
2022/01/11 01:24:23;;;;;;;38.30;25.07;;;-0.80;99.90;;;;;;5066086;28;20047;-36
2022/01/11 01:26:49;;;;;;;35.67;25.10;;;-0.80;99.90;;;;;;5052041;28;20543;-37
2022/01/11 01:29:15;;;;;;;36.30;24.10;;;-0.80;99.90;;;;;;5064906;28;20377;-36
2022/01/11 01:31:41;;;;;;;38.73;23.93;;;-0.80;99.90;;;;;;5063578;28;20045;-36
2022/01/11 01:34:07;;;;;;;34.87;24.30;;;-0.80;99.90;;;;;;5066357;28;20139;-36
2022/01/11 01:36:33;;;;;;;38.90;24.43;;;-0.90;99.90;;;;;;5053038;28;20438;-36
2022/01/11 01:38:59;;;;;;;34.47;23.10;;;-0.90;99.90;;;;;;5047681;28;20442;-36
2022/01/11 01:41:25;;;;;;;40.43;23.90;;;-0.90;99.90;;;;;;5066773;28;20052;-36
2022/01/11 01:43:54;;;;;;;33.83;23.90;;;-0.90;99.90;;;;;;5068980;28;20508;-36
2022/01/11 01:46:21;;;;;;;33.20;23.20;;;-0.90;99.90;;;;;;5056566;28;20098;-35
2022/01/11 01:48:48;;;;;;;35.37;23.10;;;-0.90;99.90;;;;;;5062769;28;20044;-35
2022/01/11 01:51:14;;;;;;;34.33;23.67;;;-0.90;99.90;;;;;;5066613;28;20075;-35
2022/01/11 01:53:46;;;;;;;36.87;22.50;;;-0.90;99.90;;;;;;5065608;28;20104;-37
2022/01/11 01:56:13;;;;;;;38.97;23.30;;;-1.00;99.90;;;;;;5057543;28;20044;-36
2022/01/11 01:58:39;;;;;;;32.87;22.73;;;-1.00;99.90;;;;;;5059188;28;20037;-36
2022/01/11 02:01:06;;;;;;;32.20;22.13;;;-1.00;99.90;;;;;;5064935;28;20045;-37
2022/01/11 02:03:38;;;;;;;34.57;22.50;;;-1.10;99.90;;;;;;5065784;28;20044;-37
2022/01/11 02:06:12;;;;;;;38.40;23.30;;;-1.10;99.90;;;;;;5066022;28;20044;-35
2022/01/11 02:08:38;;;;;;;34.30;22.33;;;-0.90;99.90;;;;;;5040954;28;20158;-36
2022/01/11 02:11:05;;;;;;;34.10;22.40;;;-1.10;99.90;;;;;;5066171;28;20519;-37
2022/01/11 02:13:31;;;;;;;35.67;23.93;;;-1.10;99.90;;;;;;5065135;28;20071;-35
2022/01/11 02:15:57;;;;;;;38.33;23.57;;;-1.10;99.90;;;;;;5066471;28;20048;-37
2022/01/11 02:18:25;;;;;;;36.60;23.63;;;-1.10;99.90;;;;;;5049527;28;20083;-37
2022/01/11 02:20:58;;;;;;;34.73;23.10;;;-1.10;99.90;;;;;;5066052;28;20404;-37
2022/01/11 02:23:27;;;;;;;42.53;25.47;;;-1.10;99.90;;;;;;5064558;28;20048;-37
2022/01/11 02:25:52;;;;;;;41.73;24.90;;;-1.10;99.90;;;;;;5065996;28;20492;-36
2022/01/11 02:28:21;;;;;;;41.40;26.23;;;-1.10;99.90;;;;;;5049339;28;20333;-34
2022/01/11 02:30:48;;;;;;;45.60;25.93;;;-1.10;99.90;;;;;;5068004;28;20061;-36
2022/01/11 02:33:32;;;;;;;44.60;26.43;;;-1.10;99.90;;;;;;5064802;28;20037;-37
2022/01/11 02:35:59;;;;;;;38.90;24.87;;;-1.10;99.90;;;;;;5059076;28;20052;-35
2022/01/11 02:38:25;;;;;;;44.57;26.50;;;-1.00;99.90;;;;;;5050002;28;20047;-37
2022/01/11 02:40:50;;;;;;;41.00;25.43;;;-1.00;99.90;;;;;;5065806;28;20435;-36
2022/01/11 02:43:16;;;;;;;43.10;24.83;;;-1.10;99.90;;;;;;5064766;28;20106;-36
2022/01/11 02:45:42;;;;;;;43.03;25.67;;;-1.10;99.90;;;;;;5070401;28;20147;-37
2022/01/11 02:48:08;;;;;;;45.43;27.07;;;-1.00;99.90;;;;;;5049042;28;20050;-36
2022/01/11 02:50:34;;;;;;;45.57;26.50;;;-1.00;99.90;;;;;;5065168;28;20465;-37
2022/01/11 02:52:59;;;;;;;46.47;26.53;;;-1.00;99.90;;;;;;5046403;28;20029;-36
2022/01/11 02:55:25;;;;;;;46.27;27.43;;;-1.00;99.90;;;;;;5065412;28;20044;-36
2022/01/11 02:57:50;;;;;;;46.33;27.23;;;-1.00;99.90;;;;;;5048065;28;20041;-37
2022/01/11 03:00:19;;;;;;;51.73;28.63;;;-1.00;99.90;;;;;;5065340;28;20480;-36
2022/01/11 03:02:46;;;;;;;52.40;29.37;;;-1.00;99.90;;;;;;5064491;28;20049;-36
2022/01/11 03:05:12;;;;;;;51.57;29.83;;;-1.00;99.90;;;;;;5065211;28;20412;-37
2022/01/11 03:07:40;;;;;;;54.37;29.43;;;-1.00;99.90;;;;;;5030565;28;20056;-37
2022/01/11 03:10:32;;;;;;;51.80;28.67;;;-1.00;99.90;;;;;;5063759;28;20127;-36
2022/01/11 03:12:59;;;;;;;60.63;30.10;;;-1.00;99.90;;;;;;5064281;28;20064;-36
2022/01/11 03:15:25;;;;;;;55.27;29.93;;;-0.90;99.90;;;;;;5065134;28;20491;-37
2022/01/11 03:17:51;;;;;;;56.70;30.53;;;-0.90;99.90;;;;;;5048383;28;20101;-36
2022/01/11 03:20:17;;;;;;;56.20;31.13;;;-0.90;99.90;;;;;;5044590;28;20040;-35
2022/01/11 03:22:42;;;;;;;56.93;31.17;;;-0.90;99.90;;;;;;5064106;28;20507;-37
2022/01/11 03:25:08;;;;;;;56.77;31.43;;;-0.90;99.90;;;;;;5065171;28;20403;-35
2022/01/11 03:27:34;;;;;;;63.23;32.37;;;-0.90;99.90;;;;;;5048228;28;20044;-36
2022/01/11 03:30:00;;;;;;;64.80;32.33;;;-0.90;99.90;;;;;;5067158;28;20055;-36
2022/01/11 03:32:25;;;;;;;68.63;34.87;;;-0.90;99.90;;;;;;5063800;28;20102;-35
2022/01/11 03:34:51;;;;;;;78.00;36.40;;;-0.80;99.90;;;;;;5065270;28;20059;-37
2022/01/11 03:37:18;;;;;;;70.40;35.60;;;-0.80;99.90;;;;;;5047808;28;20046;-36
2022/01/11 03:39:45;;;;;;;78.57;36.17;;;-0.80;99.90;;;;;;5046213;28;20059;-34
2022/01/11 03:42:10;;;;;;;80.53;37.27;;;-0.80;99.90;;;;;;5064240;28;20040;-37
2022/01/11 03:44:36;;;;;;;81.13;38.07;;;-0.80;99.90;;;;;;5069861;28;20062;-36
2022/01/11 03:47:03;;;;;;;79.67;37.70;;;-0.80;99.90;;;;;;5049132;28;20596;-37
2022/01/11 03:49:29;;;;;;;81.87;37.63;;;-0.80;99.90;;;;;;5063910;28;20040;-36
2022/01/11 03:51:55;;;;;;;85.07;38.97;;;-0.80;99.90;;;;;;5064702;28;20036;-36
2022/01/11 03:54:27;;;;;;;89.93;39.47;;;-0.80;99.90;;;;;;5062540;28;20423;-36
2022/01/11 03:56:53;;;;;;;85.83;39.87;;;-0.80;99.90;;;;;;5049143;28;20044;-37
2022/01/11 03:59:20;;;;;;;90.53;42.40;;;-0.70;99.90;;;;;;5045375;28;20423;-35
2022/01/11 04:01:46;;;;;;;100.73;42.97;;;-0.70;99.90;;;;;;5064396;28;20672;-35
2022/01/11 04:04:12;;;;;;;107.90;44.70;;;-0.70;99.90;;;;;;5063309;28;20048;-36
2022/01/11 04:06:39;;;;;;;99.27;43.60;;;-0.70;99.90;;;;;;5049242;28;20495;-37
2022/01/11 04:09:07;;;;;;;105.33;43.87;;;-0.70;99.90;;;;;;5061888;28;20071;-37
2022/01/11 04:11:33;;;;;;;96.47;44.07;;;-0.70;99.90;;;;;;5068281;28;20090;-36
2022/01/11 04:13:59;;;;;;;98.73;44.67;;;-0.60;99.90;;;;;;5067547;28;20048;-35
2022/01/11 04:16:25;;;;;;;112.40;45.53;;;-0.70;99.90;;;;;;5037683;28;20051;-35
2022/01/11 04:18:50;;;;;;;113.20;45.07;;;-0.60;99.90;;;;;;5064508;28;20057;-35
2022/01/11 04:21:16;;;;;;;118.30;46.03;;;-0.60;99.90;;;;;;5068439;28;20128;-36
2022/01/11 04:23:42;;;;;;;112.97;45.53;;;-0.70;99.90;;;;;;5067265;28;20045;-36
2022/01/11 04:26:08;;;;;;;99.27;44.57;;;-0.60;99.90;;;;;;5062013;28;20056;-35
2022/01/11 04:28:34;;;;;;;92.67;42.60;;;-0.60;99.90;;;;;;5057861;28;20040;-36
2022/01/11 04:31:00;;;;;;;106.63;46.47;;;-0.60;99.90;;;;;;5070469;28;20044;-37
2022/01/11 04:33:30;;;;;;;104.73;43.97;;;-0.60;99.90;;;;;;5065778;28;20123;-36
2022/01/11 04:35:57;;;;;;;105.53;44.50;;;-0.60;99.90;;;;;;5068508;28;20101;-36
2022/01/11 04:38:26;;;;;;;103.57;43.10;;;-0.60;99.90;;;;;;5034013;28;20036;-36
2022/01/11 04:40:53;;;;;;;100.93;43.27;;;-0.60;99.90;;;;;;5049903;28;20460;-37
2022/01/11 04:43:19;;;;;;;99.90;43.50;;;-0.60;99.90;;;;;;5067191;28;20048;-37
2022/01/11 04:45:45;;;;;;;96.43;42.83;;;-0.60;99.90;;;;;;5073354;28;20325;-36
2022/01/11 04:48:10;;;;;;;97.90;41.70;;;-0.50;99.90;;;;;;5051383;28;20055;-36
2022/01/11 04:50:36;;;;;;;99.40;41.80;;;-0.50;99.90;;;;;;5067727;28;20044;-36
2022/01/11 04:53:03;;;;;;;103.30;43.80;;;-0.50;99.90;;;;;;5065464;28;20047;-33
2022/01/11 04:55:29;;;;;;;99.73;41.97;;;-0.50;99.90;;;;;;5067986;28;20590;-35
2022/01/11 04:57:55;;;;;;;96.63;41.20;;;-0.50;99.90;;;;;;5051076;28;20032;-36
2022/01/11 05:00:23;;;;;;;104.83;42.40;;;-0.50;99.90;;;;;;5067750;28;20766;-36
2022/01/11 05:02:49;;;;;;;106.93;42.13;;;-0.50;99.90;;;;;;5046692;28;20040;-36
2022/01/11 05:05:15;;;;;;;97.53;42.50;;;-0.50;99.90;;;;;;5049665;28;20111;-37
2022/01/11 05:07:46;;;;;;;95.03;40.63;;;-0.50;99.90;;;;;;5034531;28;20124;-36
2022/01/11 05:10:12;;;;;;;103.43;41.30;;;-0.50;99.90;;;;;;5051332;28;20420;-34
2022/01/11 05:12:39;;;;;;;85.23;39.43;;;-0.50;99.90;;;;;;5028479;28;20076;-36
2022/01/11 05:15:12;;;;;;;97.13;41.77;;;-0.50;99.90;;;;;;5049156;28;20059;-37
2022/01/11 05:17:39;;;;;;;87.30;39.80;;;-0.40;99.90;;;;;;5050743;28;20550;-36
2022/01/11 05:20:06;;;;;;;91.97;40.47;;;-0.50;99.90;;;;;;5047802;28;20059;-36
2022/01/11 05:22:31;;;;;;;81.37;38.07;;;-0.40;99.90;;;;;;5066102;28;20049;-34
2022/01/11 05:24:58;;;;;;;95.30;40.37;;;-0.40;99.90;;;;;;5067224;28;20415;-36
2022/01/11 05:27:24;;;;;;;94.20;41.17;;;-0.40;99.90;;;;;;5050684;28;20089;-36
2022/01/11 05:29:50;;;;;;;94.00;42.37;;;-0.40;99.90;;;;;;5069044;28;20527;-37
2022/01/11 05:32:15;;;;;;;92.97;39.47;;;-0.40;99.90;;;;;;5066247;28;20102;-37
2022/01/11 05:34:41;;;;;;;83.60;38.20;;;-0.40;99.90;;;;;;5067851;28;20052;-37
2022/01/11 05:37:07;;;;;;;89.50;39.07;;;-0.40;99.90;;;;;;5051829;28;20139;-36
2022/01/11 05:39:33;;;;;;;89.23;41.50;;;-0.30;99.90;;;;;;5066689;28;20052;-36
2022/01/11 05:41:59;;;;;;;93.57;40.40;;;-0.30;99.90;;;;;;5067033;28;20040;-37
2022/01/11 05:44:25;;;;;;;84.80;39.10;;;-0.30;99.90;;;;;;5067315;28;20040;-37
2022/01/11 05:46:51;;;;;;;84.10;39.50;;;-0.30;99.90;;;;;;5052234;28;20419;-37
2022/01/11 05:49:16;;;;;;;86.30;39.57;;;-0.30;99.90;;;;;;5047638;28;20149;-37
2022/01/11 05:51:42;;;;;;;77.27;36.93;;;-0.30;99.90;;;;;;5048513;28;20488;-36
2022/01/11 05:54:08;;;;;;;87.57;37.67;;;-0.30;99.90;;;;;;5047561;28;20051;-36
2022/01/11 05:56:34;;;;;;;77.63;35.83;;;-0.30;99.90;;;;;;5052454;28;20052;-36
2022/01/11 05:58:59;;;;;;;74.03;36.20;;;-0.30;99.90;;;;;;5064120;28;20045;-37
2022/01/11 06:01:25;;;;;;;78.97;35.73;;;-0.30;99.90;;;;;;5065009;28;20048;-36
2022/01/11 06:03:51;;;;;;;71.70;34.97;;;-0.30;99.90;;;;;;5065257;28;20551;-37
2022/01/11 06:06:17;;;;;;;67.07;33.93;;;-0.30;99.90;;;;;;5055187;28;20527;-35
2022/01/11 06:08:43;;;;;;;74.90;35.03;;;-0.30;99.90;;;;;;5060793;28;20372;-36
2022/01/11 06:11:09;;;;;;;70.23;33.23;;;-0.30;99.90;;;;;;5066475;28;20085;-37
2022/01/11 06:13:35;;;;;;;76.50;33.97;;;-0.30;99.90;;;;;;5065203;28;20131;-36
2022/01/11 06:16:00;;;;;;;71.67;33.90;;;-0.20;99.90;;;;;;5066349;28;20129;-37
2022/01/11 06:18:26;;;;;;;63.50;31.80;;;-0.30;99.90;;;;;;5049576;28;20087;-37
2022/01/11 06:20:52;;;;;;;71.27;33.80;;;-0.30;99.90;;;;;;5066107;28;20033;-37
2022/01/11 06:23:17;;;;;;;68.03;34.40;;;-0.30;99.90;;;;;;5063401;28;20050;-35
2022/01/11 06:25:43;;;;;;;69.30;33.63;;;-0.30;99.90;;;;;;5066220;28;20049;-36
2022/01/11 06:28:09;;;;;;;67.67;34.77;;;-0.30;99.90;;;;;;5049426;28;20562;-37
2022/01/11 06:30:34;;;;;;;75.47;36.60;;;-0.30;99.90;;;;;;5049733;28;20091;-37
2022/01/11 06:33:00;;;;;;;70.17;38.27;;;-0.30;99.90;;;;;;5065110;28;20048;-36
2022/01/11 06:35:27;;;;;;;74.37;36.23;;;-0.30;99.90;;;;;;5066656;28;20483;-35
2022/01/11 06:37:53;;;;;;;74.63;37.43;;;-0.30;99.90;;;;;;5050114;28;20255;-36
2022/01/11 06:40:22;;;;;;;72.47;35.27;;;-0.30;99.90;;;;;;5064100;28;20102;-37
2022/01/11 06:42:50;;;;;;;66.80;35.17;;;-0.30;99.90;;;;;;5064890;28;20044;-36
2022/01/11 06:45:17;;;;;;;61.27;33.50;;;-0.30;99.90;;;;;;5068342;28;20352;-37
2022/01/11 06:47:44;;;;;;;62.53;32.77;;;-0.30;99.90;;;;;;5047434;28;20395;-37
2022/01/11 06:50:10;;;;;;;66.53;31.67;;;-0.30;99.90;;;;;;5065836;28;20403;-36
2022/01/11 06:52:36;;;;;;;65.50;31.60;;;-0.30;99.90;;;;;;5064670;28;20059;-37
2022/01/11 06:55:04;;;;;;;63.47;33.07;;;-0.30;99.90;;;;;;5047189;28;20044;-35
2022/01/11 06:57:30;;;;;;;61.07;31.60;;;-0.30;99.90;;;;;;5030980;28;20036;-36
2022/01/11 06:59:56;;;;;;;60.37;32.30;;;-0.30;99.90;;;;;;5064915;28;20048;-37
2022/01/11 07:02:22;;;;;;;58.50;31.03;;;-0.30;99.90;;;;;;5063074;28;20442;-36
2022/01/11 07:04:47;;;;;;;59.67;31.40;;;-0.30;99.90;;;;;;5045935;28;20051;-37
2022/01/11 07:07:13;;;;;;;67.20;31.50;;;-0.30;99.90;;;;;;5047841;28;20786;-36
2022/01/11 07:09:39;;;;;;;59.03;30.57;;;-0.30;99.90;;;;;;5063647;28;20052;-37
2022/01/11 07:12:05;;;;;;;60.03;31.73;;;-0.30;99.90;;;;;;5063223;28;20047;-36
2022/01/11 07:14:31;;;;;;;67.97;31.50;;;-0.30;99.90;;;;;;5037963;28;20048;-37
2022/01/11 07:16:56;;;;;;;65.83;33.83;;;-0.30;99.90;;;;;;5021643;28;20039;-33
2022/01/11 07:19:23;;;;;;;62.37;33.27;;;-0.30;99.90;;;;;;5059041;28;20122;-37
2022/01/11 07:21:48;;;;;;;63.53;34.53;;;-0.30;99.90;;;;;;5050320;28;20037;-35
2022/01/11 07:24:16;;;;;;;64.10;35.30;;;-0.30;99.90;;;;;;5047284;28;20557;-36
2022/01/11 07:26:42;;;;;;;76.20;42.50;;;-0.30;99.90;;;;;;5044812;28;20049;-38
2022/01/11 07:29:08;;;;;;;60.80;34.23;;;-0.30;99.90;;;;;;5060985;28;20303;-36
2022/01/11 07:31:37;;;;;;;57.67;31.23;;;-0.30;99.90;;;;;;5066427;28;20052;-37
2022/01/11 07:34:06;;;;;;;52.73;28.53;;;-0.30;99.90;;;;;;5063111;28;20549;-37
2022/01/11 07:36:32;;;;;;;55.03;28.83;;;-0.30;99.90;;;;;;5048604;28;20544;-36
2022/01/11 07:38:58;;;;;;;57.13;28.87;;;-0.30;99.90;;;;;;5042726;28;20044;-36
2022/01/11 07:41:24;;;;;;;54.23;27.90;;;-0.30;99.90;;;;;;5062490;28;20055;-37
2022/01/11 07:43:50;;;;;;;55.57;28.87;;;-0.30;99.90;;;;;;5062630;28;20102;-36
2022/01/11 07:46:15;;;;;;;56.80;29.43;;;-0.30;99.90;;;;;;5048968;28;20045;-37
2022/01/11 07:48:41;;;;;;;51.30;27.57;;;-0.30;99.90;;;;;;5045483;28;20044;-36
2022/01/11 07:51:08;;;;;;;52.67;28.60;;;-0.30;99.90;;;;;;5054955;28;20068;-36
2022/01/11 07:53:33;;;;;;;53.10;27.40;;;-0.30;99.90;;;;;;5063120;28;20040;-37
2022/01/11 07:55:59;;;;;;;51.37;27.40;;;-0.30;99.90;;;;;;5063608;28;20105;-37
2022/01/11 07:58:25;;;;;;;54.57;27.57;;;-0.30;99.90;;;;;;5029145;28;20047;-37
2022/01/11 08:00:51;;;;;;;51.07;26.63;;;-0.30;99.90;;;;;;5045143;28;20048;-37
2022/01/11 08:03:17;;;;;;;50.43;25.27;;;-0.30;99.90;;;;;;5063407;28;20041;-37
2022/01/11 08:05:43;;;;;;;48.40;27.63;;;-0.30;99.90;;;;;;5062700;28;20036;-36
2022/01/11 08:08:09;;;;;;;53.80;26.47;;;-0.30;99.90;;;;;;5028024;28;20434;-37
2022/01/11 08:10:34;;;;;;;52.27;27.30;;;-0.30;99.90;;;;;;5034578;28;20040;-37
2022/01/11 08:13:05;;;;;;;52.93;26.37;;;-0.30;99.90;;;;;;5062490;28;20090;-36
2022/01/11 08:15:32;;;;;;;37.65;20.02;;;-0.30;99.90;;;;;;5064367;28;20762;-36
2022/01/11 08:17:58;;;;;;;51.20;26.40;;;-0.30;99.90;;;;;;5046905;28;20044;-34
2022/01/11 08:20:23;;;;;;;50.20;27.00;;;-0.30;99.90;;;;;;5043297;28;20518;-36
2022/01/11 08:22:51;;;;;;;49.20;26.67;;;-0.30;99.90;;;;;;5042732;28;20806;-36
2022/01/11 08:25:17;;;;;;;48.70;25.47;;;-0.30;99.90;;;;;;5062847;28;20052;-34
2022/01/11 08:27:43;;;;;;;52.93;26.93;;;-0.30;99.90;;;;;;5045641;28;20795;-38
2022/01/11 08:30:10;;;;;;;49.13;26.77;;;-0.30;99.90;;;;;;5063459;28;20486;-37
2022/01/11 08:32:35;;;;;;;51.87;25.93;;;-0.30;99.90;;;;;;5060825;28;20098;-36
2022/01/11 08:35:01;;;;;;;47.17;25.43;;;-0.30;99.90;;;;;;5062846;28;20082;-37
2022/01/11 08:37:27;;;;;;;51.47;25.90;;;-0.30;99.90;;;;;;5027414;28;20059;-39
2022/01/11 08:39:53;;;;;;;44.83;25.87;;;-0.30;99.90;;;;;;5061314;28;20048;-37
2022/01/11 08:42:19;;;;;;;48.43;25.53;;;-0.30;99.90;;;;;;5061442;28;20059;-36
2022/01/11 08:44:47;;;;;;;50.37;26.30;;;-0.30;99.90;;;;;;5064948;28;20036;-36
2022/01/11 08:47:14;;;;;;;47.83;25.37;;;-0.30;99.90;;;;;;5046702;28;20051;-37
2022/01/11 08:49:39;;;;;;;49.13;25.93;;;-0.30;99.90;;;;;;5062624;28;20044;-37
2022/01/11 08:52:05;;;;;;;43.57;24.17;;;-0.30;99.90;;;;;;5062306;28;20041;-36
2022/01/11 08:54:31;;;;;;;53.40;25.30;;;-0.30;99.90;;;;;;5060404;28;20063;-37
2022/01/11 08:56:57;;;;;;;45.47;24.40;;;-0.30;99.90;;;;;;5050069;28;20041;-37
2022/01/11 08:59:27;;;;;;;44.13;24.63;;;-0.30;99.90;;;;;;5064438;28;20052;-36
2022/01/11 09:01:55;;;;;;;38.63;22.70;;;-0.30;99.90;;;;;;5046264;28;20609;-37
2022/01/11 09:04:22;;;;;;;43.53;23.27;;;-0.30;99.90;;;;;;5063266;28;20047;-36
2022/01/11 09:06:49;;;;;;;44.27;24.17;;;-0.30;99.90;;;;;;5046213;28;20811;-34
2022/01/11 09:09:16;;;;;;;46.77;22.93;;;-0.30;99.90;;;;;;5061519;28;20076;-35
2022/01/11 09:11:42;;;;;;;43.50;23.00;;;-0.30;99.90;;;;;;5062719;28;20044;-36
2022/01/11 09:14:09;;;;;;;43.90;24.33;;;-0.30;99.90;;;;;;5061487;28;20047;-35
2022/01/11 09:16:35;;;;;;;39.83;23.20;;;-0.30;99.90;;;;;;5051494;28;20439;-35
2022/01/11 09:19:01;;;;;;;42.57;23.23;;;-0.30;99.90;;;;;;5063389;28;20271;-36
2022/01/11 09:21:26;;;;;;;40.47;22.30;;;-0.30;99.90;;;;;;5067166;28;20493;-37
2022/01/11 09:23:52;;;;;;;40.20;23.20;;;-0.30;99.90;;;;;;5063410;28;20044;-36
2022/01/11 09:26:18;;;;;;;40.00;22.50;;;-0.30;99.90;;;;;;5051150;28;20075;-36
2022/01/11 09:28:44;;;;;;;43.80;23.50;;;-0.30;99.90;;;;;;5057846;28;20399;-36
2022/01/11 09:31:10;;;;;;;42.40;23.23;;;-0.30;99.90;;;;;;5065545;28;20037;-35
2022/01/11 09:33:36;;;;;;;40.47;23.03;;;-0.30;99.90;;;;;;5062516;28;20049;-36
2022/01/11 09:36:02;;;;;;;42.90;22.80;;;-0.30;99.90;;;;;;5064401;28;20044;-36
2022/01/11 09:38:28;;;;;;;39.37;22.03;;;-0.30;99.90;;;;;;5048769;28;20028;-36
2022/01/11 09:40:57;;;;;;;41.97;22.33;;;-0.30;99.90;;;;;;5063218;28;20051;-36
2022/01/11 09:43:25;;;;;;;42.00;22.10;;;-0.30;99.90;;;;;;5063039;28;20040;-36
2022/01/11 09:45:51;;;;;;;37.40;21.10;;;-0.30;99.90;;;;;;5062528;28;20045;-36
2022/01/11 09:48:26;;;;;;;36.03;21.67;;;-0.30;99.90;;;;;;5046422;28;20071;-36
2022/01/11 09:50:52;;;;;;;41.67;22.20;;;-0.30;99.90;;;;;;5064040;28;20392;-37
2022/01/11 09:53:18;;;;;;;33.67;20.97;;;-0.30;99.90;;;;;;5063408;28;20048;-35
2022/01/11 09:55:44;;;;;;;38.77;22.13;;;-0.30;99.90;;;;;;5063560;28;20051;-37
2022/01/11 09:58:11;;;;;;;48.23;25.63;;;-0.30;99.90;;;;;;5049071;28;20511;-37
2022/01/11 10:00:37;;;;;;;52.33;26.10;;;-0.20;99.90;;;;;;5044841;28;20129;-37
2022/01/11 10:03:05;;;;;;;44.03;24.00;;;-0.20;99.90;;;;;;5063281;28;20047;-36
2022/01/11 10:05:31;;;;;;;42.83;23.30;;;-0.20;99.90;;;;;;5030131;28;20948;-36
2022/01/11 10:07:57;;;;;;;41.30;23.70;;;-0.20;99.90;;;;;;5046362;28;20044;-37
2022/01/11 10:10:26;;;;;;;41.90;21.97;;;-0.10;99.90;;;;;;5063005;28;20040;-33
2022/01/11 10:12:54;;;;;;;36.80;22.53;;;-0.50;99.90;;;;;;5064565;28;20056;-35
2022/01/11 10:15:32;;;;;;;40.20;22.93;;;-0.10;99.90;;;;;;5068027;28;20052;-36
2022/01/11 10:17:58;;;;;;;42.03;23.80;;;-0.10;99.90;;;;;;5047528;28;20511;-36
2022/01/11 10:20:25;;;;;;;45.47;25.87;;;-0.10;99.90;;;;;;5047306;28;20059;-36
2022/01/11 10:22:56;;;;;;;44.23;24.60;;;-0.10;99.90;;;;;;5062450;28;20060;-36
2022/01/11 10:25:23;;;;;;;43.33;26.02;;;-0.10;99.90;;;;;;5063937;28;20476;-36
2022/01/11 10:28:00;;;;;;;41.87;23.30;;;0.00;99.90;;;;;;5048595;28;20064;-36
2022/01/11 10:30:27;;;;;;;47.97;25.33;;;-0.10;99.90;;;;;;5060581;28;20542;-36
2022/01/11 10:32:57;;;;;;;40.73;24.17;;;0.00;99.90;;;;;;5062649;28;20041;-36
2022/01/11 10:35:26;;;;;;;41.83;22.60;;;0.00;99.90;;;;;;5063096;28;20040;-36
2022/01/11 10:37:59;;;;;;;41.17;24.93;;;0.10;99.90;;;;;;5030677;28;20044;-37
2022/01/11 10:40:36;;;;;;;42.13;24.20;;;0.10;99.90;;;;;;5062140;28;20040;-36
2022/01/11 10:43:08;;;;;;;46.30;24.67;;;0.20;99.90;;;;;;5042472;28;20349;-37
2022/01/11 10:45:43;;;;;;;42.40;23.87;;;0.40;99.90;;;;;;5062046;28;20062;-38
2022/01/11 10:48:11;;;;;;;40.83;23.30;;;0.50;99.90;;;;;;5046357;28;20040;-36
2022/01/11 10:50:47;;;;;;;39.70;23.27;;;0.60;99.90;;;;;;5062627;28;20597;-36
2022/01/11 10:53:24;;;;;;;41.87;23.93;;;0.80;99.90;;;;;;5061616;28;20052;-37
2022/01/11 10:55:55;;;;;;;32.50;21.93;;;1.00;99.90;;;;;;5063102;28;20040;-37
2022/01/11 10:58:22;;;;;;;37.05;21.95;;;1.20;99.90;;;;;;5027538;28;20492;-36
2022/01/11 11:00:53;;;;;;;35.60;21.70;;;1.40;99.90;;;;;;5065669;28;20516;-37
2022/01/11 11:03:21;;;;;;;25.42;15.95;;;1.50;99.90;;;;;;5059725;28;20356;-37
2022/01/11 11:05:53;;;;;;;33.10;20.40;;;1.50;99.90;;;;;;5043502;28;20093;-37
2022/01/11 11:08:26;;;;;;;;;;;1.50;99.90;;;;;;5045843;28;20048;-38
2022/01/11 11:11:00;;;;;;;34.80;21.30;;;1.50;99.90;;;;;;5062324;28;19997;-37
2022/01/11 11:13:35;;;;;;;38.20;22.10;;;1.40;99.90;;;;;;5061659;28;20048;-37
2022/01/11 11:16:25;;;;;;;40.40;23.70;;;1.40;99.90;;;;;;5062252;28;20040;-37
2022/01/11 11:19:08;;;;;;;37.93;22.80;;;1.40;99.90;;;;;;5056369;28;20063;-37
2022/01/11 11:21:38;;;;;;;41.43;23.87;;;1.50;99.90;;;;;;5061287;28;20055;-36
2022/01/11 11:24:16;;;;;;;39.67;22.80;;;1.50;99.90;;;;;;5038993;28;20462;-37
2022/01/11 11:26:50;;;;;;;45.60;24.80;;;1.50;99.90;;;;;;5027330;28;20076;-37
2022/01/11 11:29:22;;;;;;;39.43;23.67;;;1.60;99.90;;;;;;5051755;28;20041;-38
2022/01/11 11:31:48;;;;;;;38.67;24.67;;;1.60;99.90;;;;;;5038488;28;20119;-36
2022/01/11 11:34:14;;;;;;;44.93;25.93;;;1.60;99.90;;;;;;5039426;28;20045;-35
2022/01/11 11:36:41;;;;;;;41.77;25.40;;;1.70;99.90;;;;;;5026851;28;20055;-36
2022/01/11 11:39:19;;;;;;;44.37;25.77;;;1.70;99.90;;;;;;5039727;28;20566;-36
2022/01/11 11:41:47;;;;;;;42.97;25.43;;;2.00;99.90;;;;;;5041362;28;20049;-37
2022/01/11 11:44:14;;;;;;;42.07;25.80;;;1.70;99.90;;;;;;5040900;28;20063;-36
2022/01/11 11:46:47;;;;;;;44.50;25.37;;;1.70;99.90;;;;;;5026579;28;20044;-37
2022/01/11 11:49:37;;;;;;;40.00;25.27;;;1.70;99.90;;;;;;5039697;28;20049;-37
2022/01/11 11:52:29;;;;;;;43.00;24.63;;;1.70;99.90;;;;;;5039933;28;20504;-37
2022/01/11 11:54:56;;;;;;;41.67;25.33;;;1.60;99.90;;;;;;5040377;28;20041;-37
2022/01/11 11:57:24;;;;;;;43.83;25.43;;;1.60;99.90;;;;;;5022820;28;20048;-37
2022/01/11 11:59:55;;;;;;;43.67;26.20;;;1.60;99.90;;;;;;5040428;28;20032;-37
2022/01/11 12:02:33;;;;;;;44.23;26.27;;;1.60;99.90;;;;;;5041512;28;20436;-36
2022/01/11 12:04:59;;;;;;;45.87;26.13;;;1.60;99.90;;;;;;5041142;28;20234;-35
2022/01/11 12:07:42;;;;;;;45.90;26.80;;;1.70;99.90;;;;;;5025608;28;20048;-37
2022/01/11 12:10:19;;;;;;;49.43;26.13;;;1.60;99.90;;;;;;5039731;28;20566;-36
2022/01/11 12:12:54;;;;;;;46.83;27.73;;;1.60;99.90;;;;;;5041310;28;20052;-37
2022/01/11 12:15:33;;;;;;;44.80;27.73;;;1.60;99.90;;;;;;5039836;28;20499;-38
2022/01/11 12:17:58;;;;;;;44.93;26.30;;;1.70;99.90;;;;;;5022760;28;20190;-37
2022/01/11 12:20:42;;;;;;;46.20;26.07;;;1.70;99.90;;;;;;5043870;28;20052;-37
2022/01/11 12:23:20;;;;;;;41.90;26.73;;;1.70;99.90;;;;;;5037730;28;20049;-37
2022/01/11 12:25:51;;;;;;;45.90;26.67;;;1.70;99.90;;;;;;5041095;28;20156;-35
2022/01/11 12:28:20;;;;;;;37.03;20.13;;;1.70;99.90;;;;;;5025066;28;20424;-38
2022/01/11 12:30:46;;;;;;;42.50;25.80;;;1.70;99.90;;;;;;5044439;28;20045;-36
2022/01/11 12:33:21;;;;;;;45.23;26.53;;;1.70;99.90;;;;;;5045592;28;20415;-37
2022/01/11 12:35:58;;;;;;;43.30;24.83;;;1.70;99.90;;;;;;5044863;28;20095;-37